Time;durP1;ratioP1;P1;durP2;ratioP2;P2;SDS_P1;SDS_P2;PMS_P1;PMS_P2;Temp;Humidity;BMP_temperature;BMP_pressure;BME280_temperature;BME280_humidity;BME280_pressure;Samples;Min_cycle;Max_cycle;Signal;HPM_P1;HPM_P2
2022/01/12 00:00:15;;;;;;;52.63;19.85;;;;;;;;;;5149854;27;20520;-66
2022/01/12 00:02:41;;;;;;;49.05;19.50;;;;;;;;;;5134181;27;20058;-65
2022/01/12 00:05:07;;;;;;;56.85;20.20;;;;;;;;;;5138782;27;20887;-66
2022/01/12 00:07:34;;;;;;;42.20;17.08;;;;;;;;;;5149052;27;20065;-66
2022/01/12 00:10:00;;;;;;;38.67;17.02;;;;;;;;;;5147344;27;20058;-65
2022/01/12 00:12:26;;;;;;;47.17;18.55;;;;;;;;;;5145028;27;20532;-66
2022/01/12 00:14:53;;;;;;;41.92;17.55;;;;;;;;;;5134310;27;20170;-66
2022/01/12 00:17:20;;;;;;;39.67;17.77;;;;;;;;;;5130246;27;20517;-66
2022/01/12 00:19:46;;;;;;;49.45;19.35;;;;;;;;;;5129912;27;20051;-66
2022/01/12 00:22:13;;;;;;;41.97;18.67;;;;;;;;;;5134013;27;20052;-66
2022/01/12 00:25:03;;;;;;;47.92;18.48;;;;;;;;;;5143199;27;20078;-66
2022/01/12 00:33:13;;;;;;;47.65;19.88;;;;;;;;;;5139663;27;20089;-65
2022/01/12 00:35:43;;;;;;;46.72;18.15;;;;;;;;;;5139565;27;20055;-65
2022/01/12 00:38:10;;;;;;;41.38;16.67;;;;;;;;;;5129962;27;20054;-65
2022/01/12 00:40:38;;;;;;;44.28;18.73;;;;;;;;;;5130314;27;20601;-66
2022/01/12 00:43:04;;;;;;;42.87;18.83;;;;;;;;;;5130301;27;20047;-66
2022/01/12 00:45:34;;;;;;;42.13;17.23;;;;;;;;;;5129697;27;20493;-65
2022/01/12 00:48:00;;;;;;;44.40;18.60;;;;;;;;;;5130546;27;20055;-66
2022/01/12 00:50:27;;;;;;;40.28;17.38;;;;;;;;;;5129090;27;20984;-66
2022/01/12 00:52:53;;;;;;;84.50;27.33;;;;;;;;;;5129101;27;20048;-68
2022/01/12 00:55:20;;;;;;;52.85;20.23;;;;;;;;;;5130474;27;20087;-67
2022/01/12 00:57:47;;;;;;;40.60;18.33;;;;;;;;;;5129872;27;20062;-67
2022/01/12 01:00:13;;;;;;;53.85;19.58;;;;;;;;;;5130393;27;20062;-65
2022/01/12 01:02:40;;;;;;;51.05;19.77;;;;;;;;;;5129665;27;20051;-66
2022/01/12 01:05:07;;;;;;;45.67;20.25;;;;;;;;;;5130156;27;20062;-66
2022/01/12 01:07:33;;;;;;;46.90;19.50;;;;;;;;;;5129640;27;20059;-66
2022/01/12 01:10:08;;;;;;;44.72;18.63;;;;;;;;;;5129396;27;20507;-66
2022/01/12 01:12:36;;;;;;;43.10;17.58;;;;;;;;;;5129662;27;20048;-65
2022/01/12 01:15:07;;;;;;;48.67;19.67;;;;;;;;;;5128094;27;20063;-66
2022/01/12 01:25:35;;;;;;;46.80;18.55;;;;;;;;;;5129858;27;20073;-65
2022/01/12 01:28:03;;;;;;;51.80;18.20;;;;;;;;;;5128687;27;20504;-65
2022/01/12 01:30:29;;;;;;;46.92;19.08;;;;;;;;;;5129511;27;20438;-66
2022/01/12 01:33:03;;;;;;;49.40;21.45;;;;;;;;;;5130113;27;20094;-66
2022/01/12 01:35:31;;;;;;;46.05;19.13;;;;;;;;;;5128937;27;20058;-66
2022/01/12 01:38:02;;;;;;;54.40;18.38;;;;;;;;;;5129885;27;20246;-66
2022/01/12 01:40:29;;;;;;;77.75;24.73;;;;;;;;;;5128404;27;20843;-66
2022/01/12 01:53:46;;;;;;;43.00;19.20;;;;;;;;;;5135183;27;20051;-66
2022/01/12 01:56:12;;;;;;;48.45;19.75;;;;;;;;;;5129335;27;20095;-65
2022/01/12 01:58:39;;;;;;;50.92;20.55;;;;;;;;;;5129231;27;20048;-65
2022/01/12 02:01:06;;;;;;;52.70;20.58;;;;;;;;;;5129452;27;20055;-66
2022/01/12 02:03:33;;;;;;;99.10;24.15;;;;;;;;;;5128401;27;20047;-66
2022/01/12 02:05:59;;;;;;;60.67;22.52;;;;;;;;;;5143121;27;20123;-66
2022/01/12 02:08:26;;;;;;;65.75;21.92;;;;;;;;;;5149618;27;20077;-66
2022/01/12 02:10:54;;;;;;;54.65;21.98;;;;;;;;;;5149379;27;20636;-65
2022/01/12 02:13:20;;;;;;;53.78;21.10;;;;;;;;;;5149617;27;20059;-66
2022/01/12 02:15:47;;;;;;;60.22;22.08;;;;;;;;;;5149808;27;20062;-66
2022/01/12 02:40:25;;;;;;;;;;;;;;;;;;5149975;27;20180;-65
2022/01/12 02:43:11;;;;;;;63.85;21.38;;;;;;;;;;5130089;27;45496;-65
2022/01/12 02:51:12;;;;;;;67.65;22.77;;;;;;;;;;5128947;27;20052;-66
2022/01/12 02:53:43;;;;;;;49.78;21.00;;;;;;;;;;5128686;27;20052;-66
2022/01/12 02:56:10;;;;;;;55.83;22.83;;;;;;;;;;5128140;27;20059;-65
2022/01/12 02:58:37;;;;;;;55.70;22.30;;;;;;;;;;5139069;27;20051;-66
2022/01/12 03:01:33;;;;;;;63.00;23.38;;;;;;;;;;5135002;27;20487;-66
2022/01/12 03:04:01;;;;;;;69.63;24.27;;;;;;;;;;5131729;27;20520;-66
2022/01/12 03:06:31;;;;;;;57.35;22.55;;;;;;;;;;5130778;27;20052;-66
2022/01/12 03:08:58;;;;;;;57.80;21.20;;;;;;;;;;5143756;27;20061;-66
2022/01/12 03:11:26;;;;;;;50.00;21.02;;;;;;;;;;5147657;27;20058;-66
2022/01/12 03:13:52;;;;;;;67.07;23.13;;;;;;;;;;5130206;27;20081;-66
2022/01/12 03:16:22;;;;;;;58.35;23.50;;;;;;;;;;5137950;27;20051;-66
2022/01/12 03:18:49;;;;;;;58.13;22.58;;;;;;;;;;5150300;27;20043;-65
2022/01/12 03:21:17;;;;;;;58.80;23.95;;;;;;;;;;5131285;27;20043;-66
2022/01/12 03:23:44;;;;;;;64.00;23.85;;;;;;;;;;5132816;27;20078;-66
2022/01/12 03:26:10;;;;;;;64.18;22.63;;;;;;;;;;5131712;27;20087;-65
2022/01/12 03:28:38;;;;;;;67.95;23.13;;;;;;;;;;5143799;27;20493;-66
2022/01/12 03:31:19;;;;;;;61.30;23.43;;;;;;;;;;5145343;27;20046;-66
2022/01/12 03:38:55;;;;;;;62.33;21.98;;;;;;;;;;5134961;27;20070;-65
2022/01/12 03:41:23;;;;;;;59.90;23.93;;;;;;;;;;5142328;27;20051;-65
2022/01/12 03:43:51;;;;;;;67.68;22.13;;;;;;;;;;5136209;27;20054;-65
2022/01/12 03:46:19;;;;;;;67.70;23.55;;;;;;;;;;5138298;27;20073;-66
2022/01/12 03:48:46;;;;;;;64.30;24.05;;;;;;;;;;5149373;27;20055;-65
2022/01/12 03:51:12;;;;;;;74.25;22.23;;;;;;;;;;5142725;27;20051;-65
2022/01/12 03:53:38;;;;;;;66.97;23.95;;;;;;;;;;5133891;27;20448;-65
2022/01/12 03:56:05;;;;;;;74.53;23.63;;;;;;;;;;5138978;27;20047;-66
2022/01/12 03:58:31;;;;;;;67.43;24.08;;;;;;;;;;5151487;27;20059;-65
2022/01/12 04:00:57;;;;;;;72.07;24.25;;;;;;;;;;5140765;27;20052;-65
2022/01/12 04:03:26;;;;;;;69.43;24.42;;;;;;;;;;5132086;27;20052;-65
2022/01/12 04:08:24;;;;;;;68.43;23.90;;;;;;;;;;5142784;27;20058;-66
2022/01/12 04:10:51;;;;;;;89.80;26.40;;;;;;;;;;5134011;27;20493;-65
2022/01/12 04:13:19;;;;;;;82.03;25.23;;;;;;;;;;5138029;27;20059;-65
2022/01/12 04:15:48;;;;;;;99.93;26.60;;;;;;;;;;5147111;27;20127;-65
2022/01/12 04:18:14;;;;;;;80.38;25.95;;;;;;;;;;5130524;27;20058;-65
2022/01/12 04:20:48;;;;;;;95.50;26.45;;;;;;;;;;5130314;27;20184;-65
2022/01/12 04:23:18;;;;;;;91.07;25.15;;;;;;;;;;5134128;27;20054;-65
2022/01/12 04:25:45;;;;;;;89.05;26.48;;;;;;;;;;5146778;27;20058;-65
2022/01/12 04:28:12;;;;;;;88.65;25.35;;;;;;;;;;5129038;27;20062;-65
2022/01/12 04:30:38;;;;;;;86.82;26.90;;;;;;;;;;5130110;27;20529;-65
2022/01/12 04:33:05;;;;;;;88.55;26.23;;;;;;;;;;5136303;27;20059;-65
2022/01/12 04:35:37;;;;;;;101.63;27.98;;;;;;;;;;5150371;27;20133;-65
2022/01/12 04:38:04;;;;;;;98.05;26.55;;;;;;;;;;5140590;27;20058;-65
2022/01/12 04:40:31;;;;;;;97.97;26.25;;;;;;;;;;5130055;27;20511;-65
2022/01/12 04:42:57;;;;;;;75.68;25.30;;;;;;;;;;5130768;27;20527;-66
2022/01/12 04:50:23;;;;;;;89.78;25.58;;;;;;;;;;5141314;27;20053;-66
2022/01/12 04:52:50;;;;;;;136.85;28.13;;;;;;;;;;5150323;27;20156;-65
2022/01/12 04:55:16;;;;;;;91.72;26.80;;;;;;;;;;5151013;27;20057;-65
2022/01/12 04:57:43;;;;;;;94.20;25.85;;;;;;;;;;5151030;27;20488;-65
2022/01/12 05:00:15;;;;;;;121.68;28.42;;;;;;;;;;5150605;27;20061;-65
2022/01/12 05:08:20;;;;;;;75.03;25.88;;;;;;;;;;5128772;27;20051;-65
2022/01/12 05:13:32;;;;;;;137.13;27.35;;;;;;;;;;5132804;27;20169;-65
2022/01/12 05:16:00;;;;;;;114.30;26.90;;;;;;;;;;5142518;27;20052;-65
2022/01/12 05:18:27;;;;;;;142.45;28.80;;;;;;;;;;5140414;27;20059;-65
2022/01/12 05:20:54;;;;;;;156.55;26.92;;;;;;;;;;5149100;27;20047;-65
2022/01/12 05:23:20;;;;;;;92.40;26.38;;;;;;;;;;5147752;27;20052;-65
2022/01/12 05:25:47;;;;;;;111.63;27.20;;;;;;;;;;5130017;27;20516;-65
2022/01/12 05:28:13;;;;;;;137.15;26.85;;;;;;;;;;5133542;27;20501;-65
2022/01/12 05:30:40;;;;;;;134.05;26.95;;;;;;;;;;5134655;27;20057;-65
2022/01/12 05:33:07;;;;;;;108.65;25.67;;;;;;;;;;5137196;27;20873;-65
2022/01/12 05:35:34;;;;;;;108.80;25.70;;;;;;;;;;5150700;27;20463;-65
2022/01/12 05:38:02;;;;;;;165.95;27.95;;;;;;;;;;5143819;27;20061;-65
2022/01/12 05:40:28;;;;;;;156.70;29.38;;;;;;;;;;5130008;27;20510;-66
2022/01/12 05:42:56;;;;;;;157.10;27.65;;;;;;;;;;5130259;27;20141;-65
2022/01/12 05:45:22;;;;;;;132.07;25.80;;;;;;;;;;5137553;27;20040;-65
2022/01/12 05:50:16;;;;;;;171.63;27.98;;;;;;;;;;5130116;27;20932;-65
2022/01/12 05:52:42;;;;;;;69.22;22.90;;;;;;;;;;5129577;27;20095;-66
2022/01/12 05:55:09;;;;;;;95.15;24.00;;;;;;;;;;5130279;27;20051;-65
2022/01/12 05:57:36;;;;;;;90.85;23.02;;;;;;;;;;5130200;27;20135;-65
2022/01/12 06:00:04;;;;;;;121.03;24.75;;;;;;;;;;5130426;27;20074;-65
2022/01/12 06:02:30;;;;;;;102.25;24.45;;;;;;;;;;5129836;27;20056;-66
2022/01/12 06:04:57;;;;;;;98.72;24.83;;;;;;;;;;5130985;27;20055;-66
2022/01/12 06:07:23;;;;;;;103.43;22.77;;;;;;;;;;5129604;27;20140;-65
2022/01/12 06:09:50;;;;;;;99.18;22.50;;;;;;;;;;5132308;27;20044;-65
2022/01/12 06:12:17;;;;;;;88.82;22.10;;;;;;;;;;5129545;27;20055;-65
2022/01/12 06:14:43;;;;;;;94.53;24.08;;;;;;;;;;5128693;27;20058;-66
2022/01/12 06:17:10;;;;;;;143.15;24.85;;;;;;;;;;5132154;27;20054;-65
2022/01/12 06:19:36;;;;;;;103.40;22.48;;;;;;;;;;5140235;27;20414;-66
2022/01/12 06:22:03;;;;;;;79.18;22.02;;;;;;;;;;5141370;27;20051;-66
2022/01/12 06:24:29;;;;;;;68.07;22.80;;;;;;;;;;5144787;27;20047;-65
2022/01/12 06:26:56;;;;;;;63.72;21.88;;;;;;;;;;5133322;27;20055;-65
2022/01/12 06:29:26;;;;;;;64.57;22.23;;;;;;;;;;5150701;27;20046;-65
2022/01/12 06:31:54;;;;;;;79.97;21.98;;;;;;;;;;5137831;27;20146;-66
2022/01/12 06:34:21;;;;;;;60.17;22.33;;;;;;;;;;5138732;27;20521;-66
2022/01/12 06:36:48;;;;;;;52.50;20.17;;;;;;;;;;5150592;27;20055;-65
2022/01/12 06:39:17;;;;;;;57.25;21.45;;;;;;;;;;5133837;27;20433;-65
2022/01/12 06:41:44;;;;;;;56.15;21.38;;;;;;;;;;5128617;27;20528;-65
2022/01/12 06:44:12;;;;;;;55.97;21.55;;;;;;;;;;5129324;27;20053;-66
2022/01/12 06:46:39;;;;;;;59.65;21.00;;;;;;;;;;5128809;27;20510;-65
2022/01/12 06:49:06;;;;;;;51.53;20.63;;;;;;;;;;5129675;27;20059;-65
2022/01/12 06:51:32;;;;;;;46.42;18.50;;;;;;;;;;5155508;27;20055;-65
2022/01/12 06:53:58;;;;;;;52.88;20.63;;;;;;;;;;5143553;27;20043;-65
2022/01/12 06:56:25;;;;;;;60.25;20.83;;;;;;;;;;5146118;27;20051;-65
2022/01/12 06:58:51;;;;;;;53.33;21.27;;;;;;;;;;5136884;27;20501;-65
2022/01/12 07:01:17;;;;;;;69.25;22.13;;;;;;;;;;5135004;27;20057;-66
2022/01/12 07:03:44;;;;;;;58.17;19.58;;;;;;;;;;5134626;27;20494;-65
2022/01/12 07:06:10;;;;;;;55.15;21.15;;;;;;;;;;5150705;27;20956;-66
2022/01/12 07:08:36;;;;;;;58.25;21.35;;;;;;;;;;5135906;27;20077;-65
2022/01/12 07:11:03;;;;;;;57.92;20.70;;;;;;;;;;5144799;27;20142;-65
2022/01/12 07:13:29;;;;;;;56.05;19.10;;;;;;;;;;5141993;27;20056;-65
2022/01/12 07:15:56;;;;;;;51.25;18.90;;;;;;;;;;5147236;27;20598;-65
2022/01/12 07:18:24;;;;;;;64.90;19.92;;;;;;;;;;5142140;27;20051;-66
2022/01/12 07:20:50;;;;;;;61.90;20.17;;;;;;;;;;5138302;27;20072;-65
2022/01/12 07:23:17;;;;;;;59.35;20.98;;;;;;;;;;5145587;27;20047;-66
2022/01/12 07:25:43;;;;;;;60.88;20.45;;;;;;;;;;5153724;27;20061;-66
2022/01/12 07:28:10;;;;;;;66.15;21.67;;;;;;;;;;5152203;27;20985;-66
2022/01/12 07:30:36;;;;;;;62.50;21.25;;;;;;;;;;5136630;27;20051;-66
2022/01/12 07:33:08;;;;;;;71.60;19.35;;;;;;;;;;5153383;27;20063;-65
2022/01/12 07:35:35;;;;;;;77.00;16.63;;;;;;;;;;5151765;27;20134;-65
2022/01/12 07:38:01;;;;;;;81.22;16.10;;;;;;;;;;5153339;27;20055;-66
2022/01/12 07:40:28;;;;;;;72.15;16.42;;;;;;;;;;5133316;27;20047;-65
2022/01/12 07:42:54;;;;;;;61.25;14.35;;;;;;;;;;5132017;27;20142;-65
2022/01/12 07:45:20;;;;;;;79.07;16.23;;;;;;;;;;5132144;27;20509;-65
2022/01/12 07:47:47;;;;;;;87.22;15.27;;;;;;;;;;5135233;27;20048;-65
2022/01/12 07:50:13;;;;;;;59.78;13.18;;;;;;;;;;5132126;27;20058;-65
2022/01/12 07:52:40;;;;;;;74.78;12.98;;;;;;;;;;5133776;27;20093;-65
2022/01/12 07:55:06;;;;;;;81.13;15.38;;;;;;;;;;5159444;27;20048;-65
2022/01/12 07:57:33;;;;;;;74.72;14.68;;;;;;;;;;5152460;27;20055;-65
2022/01/12 07:59:59;;;;;;;60.13;12.55;;;;;;;;;;5132575;27;20054;-65
2022/01/12 08:02:26;;;;;;;56.10;11.85;;;;;;;;;;5131269;27;20075;-65
2022/01/12 08:04:52;;;;;;;48.30;11.95;;;;;;;;;;5133243;27;20052;-65
2022/01/12 08:07:19;;;;;;;53.92;11.85;;;;;;;;;;5145242;27;20051;-66
2022/01/12 08:09:45;;;;;;;69.50;12.52;;;;;;;;;;5173151;27;20512;-66
2022/01/12 08:12:12;;;;;;;66.38;12.10;;;;;;;;;;5153225;27;20145;-65
2022/01/12 08:14:38;;;;;;;77.60;13.77;;;;;;;;;;5164795;27;20996;-65
2022/01/12 08:17:05;;;;;;;71.00;13.10;;;;;;;;;;5173174;27;20057;-65
2022/01/12 08:19:35;;;;;;;62.20;13.73;;;;;;;;;;5158546;27;20576;-64
2022/01/12 08:22:02;;;;;;;83.90;13.88;;;;;;;;;;5152041;27;20381;-65
2022/01/12 08:24:28;;;;;;;62.15;12.90;;;;;;;;;;5153453;27;20062;-65
2022/01/12 08:27:10;;;;;;;72.00;14.23;;;;;;;;;;5151738;27;20039;-65
2022/01/12 08:29:36;;;;;;;66.90;14.48;;;;;;;;;;5151930;27;20137;-64
2022/01/12 08:32:03;;;;;;;64.97;13.13;;;;;;;;;;5151525;27;20079;-64
2022/01/12 08:34:30;;;;;;;66.03;12.98;;;;;;;;;;5150827;27;20055;-64
2022/01/12 08:36:56;;;;;;;53.53;13.18;;;;;;;;;;5151334;27;20047;-65
2022/01/12 08:39:23;;;;;;;52.92;11.52;;;;;;;;;;5150519;27;20138;-66
2022/01/12 08:41:49;;;;;;;641.00;43.17;;;;;;;;;;5135346;27;20047;-65
2022/01/12 08:44:30;;;;;;;55.97;12.43;;;;;;;;;;5150520;27;20051;-65
2022/01/12 08:46:57;;;;;;;46.72;11.63;;;;;;;;;;5134734;27;20087;-66
2022/01/12 08:49:23;;;;;;;51.38;11.63;;;;;;;;;;5141154;27;20055;-65
2022/01/12 08:51:49;;;;;;;53.10;11.80;;;;;;;;;;5138023;27;20539;-66
2022/01/12 08:54:16;;;;;;;49.72;11.52;;;;;;;;;;5141464;27;20062;-66
2022/01/12 08:56:42;;;;;;;42.28;10.95;;;;;;;;;;5137191;27;20057;-65
2022/01/12 08:59:08;;;;;;;46.85;11.77;;;;;;;;;;5135451;27;20061;-65
2022/01/12 09:01:35;;;;;;;46.67;10.50;;;;;;;;;;5141544;27;20635;-64
2022/01/12 09:04:01;;;;;;;42.30;11.68;;;;;;;;;;5135333;27;20059;-64
2022/01/12 09:06:27;;;;;;;45.80;12.23;;;;;;;;;;5131739;27;20048;-64
2022/01/12 09:08:54;;;;;;;49.25;12.18;;;;;;;;;;5130519;27;20530;-64
2022/01/12 09:11:20;;;;;;;48.42;12.25;;;;;;;;;;5130783;27;20062;-64
2022/01/12 09:13:46;;;;;;;43.50;11.82;;;;;;;;;;5136969;27;20153;-64
2022/01/12 09:16:13;;;;;;;40.17;10.38;;;;;;;;;;5137054;27;20150;-64
2022/01/12 09:18:40;;;;;;;37.42;10.13;;;;;;;;;;5146361;27;20610;-66
2022/01/12 09:21:06;;;;;;;40.75;10.85;;;;;;;;;;5130430;27;20058;-64
2022/01/12 09:23:32;;;;;;;40.60;10.90;;;;;;;;;;5133441;27;20481;-64
2022/01/12 09:25:59;;;;;;;48.22;11.40;;;;;;;;;;5132181;27;20046;-65
2022/01/12 09:28:25;;;;;;;44.58;10.75;;;;;;;;;;5132498;27;20146;-64
2022/01/12 09:30:52;;;;;;;46.92;11.20;;;;;;;;;;5134162;27;20620;-64
2022/01/12 09:33:19;;;;;;;39.35;10.77;;;;;;;;;;5150463;27;20519;-65
2022/01/12 09:35:49;;;;;;;43.17;11.25;;;;;;;;;;5143946;27;20688;-64
2022/01/12 09:38:16;;;;;;;42.13;12.02;;;;;;;;;;5129699;27;20505;-64
2022/01/12 09:40:43;;;;;;;36.90;10.95;;;;;;;;;;5130320;27;20067;-64
2022/01/12 09:43:10;;;;;;;41.95;11.05;;;;;;;;;;5129732;27;20055;-66
2022/01/12 09:45:39;;;;;;;43.33;10.13;;;;;;;;;;5130273;27;20050;-66
2022/01/12 09:48:09;;;;;;;436.92;44.80;;;;;;;;;;5143024;27;20124;-65
2022/01/12 09:50:36;;;;;;;267.45;22.42;;;;;;;;;;5138152;27;20061;-66
2022/01/12 09:53:02;;;;;;;32.92;9.38;;;;;;;;;;5130611;27;20047;-67
2022/01/12 09:55:28;;;;;;;29.92;8.48;;;;;;;;;;5129542;27;20052;-67
2022/01/12 09:57:55;;;;;;;33.13;9.18;;;;;;;;;;5129641;27;20585;-66
2022/01/12 10:00:22;;;;;;;29.35;9.13;;;;;;;;;;5130131;27;20520;-66
2022/01/12 10:02:49;;;;;;;35.05;9.82;;;;;;;;;;5130279;27;20501;-66
2022/01/12 10:05:16;;;;;;;35.78;10.23;;;;;;;;;;5141795;27;20082;-65
2022/01/12 10:07:43;;;;;;;27.73;9.20;;;;;;;;;;5130171;27;20043;-65
2022/01/12 10:10:14;;;;;;;33.90;10.07;;;;;;;;;;5149453;27;20065;-66
2022/01/12 10:12:53;;;;;;;30.42;8.80;;;;;;;;;;5146743;27;20059;-66
2022/01/12 10:15:20;;;;;;;39.83;10.05;;;;;;;;;;5139833;27;20067;-64
2022/01/12 10:17:47;;;;;;;37.10;10.05;;;;;;;;;;5146491;27;20055;-65
2022/01/12 10:20:18;;;;;;;37.47;10.93;;;;;;;;;;5150258;27;20051;-64
2022/01/12 10:22:55;;;;;;;38.35;11.02;;;;;;;;;;5130425;27;20147;-64
2022/01/12 10:25:22;;;;;;;32.33;10.20;;;;;;;;;;5130546;27;20062;-65
2022/01/12 10:27:48;;;;;;;37.95;10.80;;;;;;;;;;5132958;27;20051;-64
2022/01/12 10:30:19;;;;;;;32.33;10.50;;;;;;;;;;5142168;27;20505;-65
2022/01/12 10:32:45;;;;;;;28.38;8.35;;;;;;;;;;5137163;27;20055;-65
2022/01/12 10:35:11;;;;;;;31.63;9.45;;;;;;;;;;5144973;27;20050;-65
2022/01/12 10:37:38;;;;;;;31.30;9.25;;;;;;;;;;5139747;27;20047;-65
2022/01/12 10:40:07;;;;;;;32.67;9.70;;;;;;;;;;5142431;27;20066;-64
2022/01/12 10:42:34;;;;;;;26.67;9.88;;;;;;;;;;5141657;27;20539;-65
2022/01/12 10:45:02;;;;;;;32.95;9.27;;;;;;;;;;5146793;27;20061;-64
2022/01/12 10:47:29;;;;;;;32.97;9.82;;;;;;;;;;5153173;27;20051;-64
2022/01/12 10:49:56;;;;;;;34.97;9.93;;;;;;;;;;5136008;27;20060;-65
2022/01/12 10:52:25;;;;;;;32.35;9.88;;;;;;;;;;5132969;27;20138;-65
2022/01/12 10:54:53;;;;;;;35.58;9.93;;;;;;;;;;5133800;27;20051;-64
2022/01/12 10:57:19;;;;;;;35.42;9.95;;;;;;;;;;5132287;27;20134;-65
2022/01/12 10:59:46;;;;;;;34.95;9.93;;;;;;;;;;5132663;27;20051;-64
2022/01/12 11:02:18;;;;;;;31.92;9.85;;;;;;;;;;5136332;27;20057;-65
2022/01/12 11:04:45;;;;;;;35.83;10.10;;;;;;;;;;5134728;27;20056;-66
2022/01/12 11:07:11;;;;;;;32.35;10.40;;;;;;;;;;5144872;27;20087;-65
2022/01/12 11:09:38;;;;;;;34.20;10.23;;;;;;;;;;5153829;27;20104;-64
2022/01/12 11:12:05;;;;;;;31.50;10.23;;;;;;;;;;5139486;27;20167;-64
2022/01/12 11:14:31;;;;;;;34.75;10.57;;;;;;;;;;5136251;27;20055;-65
2022/01/12 11:16:58;;;;;;;37.65;9.98;;;;;;;;;;5153740;27;20144;-65
2022/01/12 11:19:24;;;;;;;32.80;10.55;;;;;;;;;;5153372;27;20077;-64
2022/01/12 11:21:58;;;;;;;32.50;9.73;;;;;;;;;;5137153;27;20047;-64
2022/01/12 11:24:26;;;;;;;33.28;9.38;;;;;;;;;;5131878;27;20048;-66
2022/01/12 11:26:52;;;;;;;30.20;9.98;;;;;;;;;;5140517;27;20592;-64
2022/01/12 11:29:29;;;;;;;34.17;9.57;;;;;;;;;;5144024;27;20054;-65
2022/01/12 11:32:09;;;;;;;36.75;11.18;;;;;;;;;;5136605;27;20137;-65
2022/01/12 11:34:36;;;;;;;31.48;10.25;;;;;;;;;;5140635;27;20051;-65
2022/01/12 11:37:15;;;;;;;32.67;11.30;;;;;;;;;;5148576;27;20055;-64
2022/01/12 11:39:42;;;;;;;28.02;9.30;;;;;;;;;;5147723;27;20424;-65
2022/01/12 11:42:09;;;;;;;30.40;9.13;;;;;;;;;;5147938;27;20128;-65
2022/01/12 11:44:36;;;;;;;37.50;9.43;;;;;;;;;;5140770;27;20525;-64
2022/01/12 11:47:03;;;;;;;29.27;10.60;;;;;;;;;;5153387;27;20129;-64
2022/01/12 11:49:39;;;;;;;38.38;10.57;;;;;;;;;;5156660;27;20105;-65
2022/01/12 11:52:14;;;;;;;34.30;9.15;;;;;;;;;;5148429;27;20058;-64
2022/01/12 11:54:45;;;;;;;32.72;10.65;;;;;;;;;;5145688;27;20050;-64
2022/01/12 11:57:16;;;;;;;33.70;10.85;;;;;;;;;;5151561;27;20091;-65
2022/01/12 11:59:55;;;;;;;30.80;10.25;;;;;;;;;;5145155;27;20065;-65
2022/01/12 12:02:35;;;;;;;29.48;9.30;;;;;;;;;;5161433;27;20138;-64
2022/01/12 12:05:06;;;;;;;36.00;9.93;;;;;;;;;;5140961;27;20138;-64
2022/01/12 12:07:42;;;;;;;35.95;10.18;;;;;;;;;;5143593;27;20052;-65
2022/01/12 12:10:13;;;;;;;29.67;9.60;;;;;;;;;;5132250;27;20518;-65
2022/01/12 12:12:39;;;;;;;34.53;10.15;;;;;;;;;;5134573;27;20054;-65
2022/01/12 12:15:07;;;;;;;30.65;9.18;;;;;;;;;;5136358;27;20058;-65
2022/01/12 12:17:34;;;;;;;33.85;9.07;;;;;;;;;;5139529;27;20043;-65
2022/01/12 12:20:01;;;;;;;32.47;8.95;;;;;;;;;;5148791;27;20150;-65
2022/01/12 12:22:29;;;;;;;37.47;10.40;;;;;;;;;;5142595;27;20047;-65
2022/01/12 12:25:06;;;;;;;30.73;8.55;;;;;;;;;;5147731;27;20056;-65
2022/01/12 12:27:33;;;;;;;25.10;8.77;;;;;;;;;;5142009;27;20044;-65
2022/01/12 12:30:00;;;;;;;30.30;9.23;;;;;;;;;;5136837;27;20047;-65
2022/01/12 12:32:39;;;;;;;34.05;9.52;;;;;;;;;;5146104;27;20060;-65
2022/01/12 12:35:10;;;;;;;32.50;8.80;;;;;;;;;;5146785;27;20151;-65
2022/01/12 12:37:38;;;;;;;31.20;9.30;;;;;;;;;;5136274;27;20047;-65
2022/01/12 12:40:15;;;;;;;32.30;9.98;;;;;;;;;;5139019;27;20093;-65
2022/01/12 12:42:42;;;;;;;38.60;9.30;;;;;;;;;;5138050;27;20048;-64
2022/01/12 12:45:08;;;;;;;33.38;9.60;;;;;;;;;;5143940;27;20056;-65
2022/01/12 12:47:35;;;;;;;29.48;9.52;;;;;;;;;;5146580;27;20135;-64
2022/01/12 12:50:05;;;;;;;29.45;9.15;;;;;;;;;;5143420;27;20054;-65
2022/01/12 12:52:33;;;;;;;27.25;9.63;;;;;;;;;;5147699;27;20056;-66
2022/01/12 12:55:13;;;;;;;27.50;10.05;;;;;;;;;;5133700;27;20061;-64
2022/01/12 12:57:47;;;;;;;30.40;9.98;;;;;;;;;;5162549;27;20479;-66
2022/01/12 13:00:16;;;;;;;29.05;9.38;;;;;;;;;;5165470;27;20065;-65
2022/01/12 13:02:44;;;;;;;29.05;10.00;;;;;;;;;;5146480;27;20051;-65
2022/01/12 13:05:12;;;;;;;35.42;11.52;;;;;;;;;;5140700;27;20052;-64
2022/01/12 13:07:40;;;;;;;34.20;11.57;;;;;;;;;;5134852;27;20104;-65
2022/01/12 13:10:08;;;;;;;31.15;11.60;;;;;;;;;;5134042;27;20154;-65
2022/01/12 13:12:35;;;;;;;31.05;12.93;;;;;;;;;;5140058;27;20051;-64
2022/01/12 13:15:06;;;;;;;36.80;12.40;;;;;;;;;;5131652;27;20054;-64
2022/01/12 13:17:33;;;;;;;30.40;12.02;;;;;;;;;;5146019;27;20047;-64
2022/01/12 13:22:31;;;;;;;36.50;13.23;;;;;;;;;;5153968;27;20065;-65
2022/01/12 13:24:58;;;;;;;29.35;12.70;;;;;;;;;;5148762;27;20091;-65
2022/01/12 13:27:24;;;;;;;40.42;12.98;;;;;;;;;;5143415;27;20381;-65
2022/01/12 13:29:51;;;;;;;38.67;14.15;;;;;;;;;;5132442;27;20044;-65
2022/01/12 13:32:18;;;;;;;44.67;16.10;;;;;;;;;;5120109;27;20059;-66
2022/01/12 13:34:57;;;;;;;38.22;14.73;;;;;;;;;;5134026;27;20556;-65
2022/01/12 13:37:24;;;;;;;32.05;14.32;;;;;;;;;;5148047;27;20058;-65
2022/01/12 13:40:06;;;;;;;38.33;14.80;;;;;;;;;;5146348;27;20054;-65
2022/01/12 13:42:33;;;;;;;40.83;16.38;;;;;;;;;;5139656;27;20047;-65
2022/01/12 13:45:04;;;;;;;43.15;15.95;;;;;;;;;;5155317;27;20047;-65
2022/01/12 13:47:35;;;;;;;38.75;14.48;;;;;;;;;;5130398;27;20056;-66
2022/01/12 13:50:06;;;;;;;41.58;17.73;;;;;;;;;;5130374;27;20097;-66
2022/01/12 13:52:32;;;;;;;47.85;17.33;;;;;;;;;;5140526;27;20473;-66
2022/01/12 13:55:07;;;;;;;39.70;15.52;;;;;;;;;;5161622;27;20512;-66
2022/01/12 13:57:33;;;;;;;44.20;16.85;;;;;;;;;;5166420;27;20046;-65
2022/01/12 14:00:00;;;;;;;41.75;16.23;;;;;;;;;;5165770;27;20512;-65
2022/01/12 14:02:29;;;;;;;48.08;14.90;;;;;;;;;;5143140;27;20050;-66
2022/01/12 14:05:08;;;;;;;37.75;16.10;;;;;;;;;;5155142;27;20051;-65
2022/01/12 14:07:38;;;;;;;41.20;17.67;;;;;;;;;;5147726;27;20055;-68
2022/01/12 14:10:06;;;;;;;39.13;16.77;;;;;;;;;;5139325;27;20086;-66
2022/01/12 14:12:33;;;;;;;39.50;16.40;;;;;;;;;;5145284;27;20149;-66
2022/01/12 14:15:01;;;;;;;38.40;16.92;;;;;;;;;;5140849;27;20361;-66
2022/01/12 14:17:27;;;;;;;38.00;15.85;;;;;;;;;;5155073;27;20047;-66
2022/01/12 14:19:54;;;;;;;41.08;16.45;;;;;;;;;;5147641;27;20127;-68
2022/01/12 14:22:20;;;;;;;43.90;18.05;;;;;;;;;;5138550;27;20134;-66
2022/01/12 14:24:54;;;;;;;36.65;17.00;;;;;;;;;;5134617;27;20429;-66
2022/01/12 14:27:20;;;;;;;42.20;16.55;;;;;;;;;;5147955;27;20155;-66
2022/01/12 14:29:46;;;;;;;43.70;17.23;;;;;;;;;;5137579;27;20050;-66
2022/01/12 14:32:13;;;;;;;39.75;15.52;;;;;;;;;;5132703;27;20059;-66
2022/01/12 14:34:39;;;;;;;40.15;15.20;;;;;;;;;;5138179;27;20051;-66
2022/01/12 14:37:06;;;;;;;41.10;15.70;;;;;;;;;;5147638;27;20504;-66
2022/01/12 14:39:33;;;;;;;41.08;15.80;;;;;;;;;;5143852;27;20046;-66
2022/01/12 14:41:59;;;;;;;46.80;16.48;;;;;;;;;;5148109;27;20416;-66
2022/01/12 14:44:29;;;;;;;43.33;15.32;;;;;;;;;;5140794;27;20047;-66
2022/01/12 14:46:55;;;;;;;41.15;15.52;;;;;;;;;;5132254;27;20130;-66
2022/01/12 14:49:21;;;;;;;46.47;15.13;;;;;;;;;;5140013;27;20072;-67
2022/01/12 14:51:48;;;;;;;46.55;15.15;;;;;;;;;;5161563;27;20055;-66
2022/01/12 14:54:31;;;;;;;38.15;13.82;;;;;;;;;;5150162;27;20055;-66
2022/01/12 14:56:58;;;;;;;39.83;13.55;;;;;;;;;;5143640;27;20062;-66
2022/01/12 14:59:24;;;;;;;40.80;13.93;;;;;;;;;;5141367;27;20076;-66
2022/01/12 15:01:50;;;;;;;36.47;12.73;;;;;;;;;;5144272;27;20143;-66
2022/01/12 15:04:17;;;;;;;37.10;12.95;;;;;;;;;;5141837;27;20541;-65
2022/01/12 15:06:43;;;;;;;38.90;13.30;;;;;;;;;;5137338;27;20058;-66
2022/01/12 15:09:10;;;;;;;38.78;12.35;;;;;;;;;;5128879;27;20054;-66
2022/01/12 15:11:40;;;;;;;36.85;13.27;;;;;;;;;;5129895;27;20051;-67
2022/01/12 15:16:52;;;;;;;33.40;11.60;;;;;;;;;;5132883;27;20832;-66
2022/01/12 15:19:18;;;;;;;33.97;12.05;;;;;;;;;;5132777;27;20055;-66
2022/01/12 15:21:45;;;;;;;38.45;11.98;;;;;;;;;;5147916;27;20055;-65
2022/01/12 15:24:11;;;;;;;39.80;13.48;;;;;;;;;;5153250;27;20507;-66
2022/01/12 15:26:41;;;;;;;37.30;12.70;;;;;;;;;;5133219;27;20423;-66
2022/01/12 15:29:08;;;;;;;41.75;11.68;;;;;;;;;;5132440;27;20146;-66
2022/01/12 15:31:34;;;;;;;34.33;12.23;;;;;;;;;;5132115;27;20059;-66
2022/01/12 15:34:00;;;;;;;48.00;14.25;;;;;;;;;;5131945;27;20063;-66
2022/01/12 15:36:27;;;;;;;39.03;13.63;;;;;;;;;;5133139;27;20054;-66
2022/01/12 15:38:54;;;;;;;42.58;13.88;;;;;;;;;;5132788;27;20062;-66
2022/01/12 15:41:20;;;;;;;40.20;13.43;;;;;;;;;;5132525;27;20505;-66
2022/01/12 15:43:47;;;;;;;45.75;13.52;;;;;;;;;;5131584;27;20179;-66